Time;durP1;ratioP1;P1;durP2;ratioP2;P2;SDS_P1;SDS_P2;PMS_P1;PMS_P2;Temp;Humidity;BMP_temperature;BMP_pressure;BME280_temperature;BME280_humidity;BME280_pressure;Samples;Min_cycle;Max_cycle;Signal;HPM_P1;HPM_P2
2023/04/15 00:00:19;;;;;;;;;;;;;;;19.08;69.90;100069.25;7397797;19;1064;-49
2023/04/15 00:02:47;;;;;;;;;;;;;;;19.12;69.56;100055.53;7396830;19;1959;-49
2023/04/15 00:05:16;;;;;;;;;;;;;;;19.08;69.57;100063.06;7395095;19;1847;-49
2023/04/15 00:07:47;;;;;;;;;;;;;;;19.03;69.66;100059.97;7393121;19;1205;-49
2023/04/15 00:10:16;;;;;;;;;;;;;;;19.03;69.94;100049.25;7396512;19;1208;-50
2023/04/15 00:12:44;;;;;;;;;;;;;;;19.03;69.67;100051.94;7395992;19;1587;-50
2023/04/15 00:15:13;;;;;;;;;;;;;;;18.98;69.58;100036.34;7395276;19;1482;-49
2023/04/15 00:17:41;;;;;;;;;;;;;;;19.01;70.02;100027.97;7395065;19;1531;-49
2023/04/15 00:20:10;;;;;;;;;;;;;;;18.97;69.73;100042.66;7396424;19;1859;-49
2023/04/15 00:22:39;;;;;;;;;;;;;;;19.04;69.21;100051.78;7396918;19;1101;-49
2023/04/15 00:25:10;;;;;;;;;;;;;;;19.04;69.40;100041.06;7395169;19;1861;-49
2023/04/15 00:27:38;;;;;;;;;;;;;;;19.12;68.98;100042.13;7395634;19;1507;-49
2023/04/15 00:30:07;;;;;;;;;;;;;;;19.16;68.79;100044.38;7395165;19;1233;-49
2023/04/15 00:32:36;;;;;;;;;;;;;;;18.99;69.90;100048.72;7394904;19;1291;-49
2023/04/15 00:35:04;;;;;;;;;;;;;;;19.01;69.53;100057.44;7395958;19;1501;-49
2023/04/15 00:37:34;;;;;;;;;;;;;;;18.92;69.81;100053.03;7396631;19;1580;-49
2023/04/15 00:40:03;;;;;;;;;;;;;;;18.94;69.81;100048.34;7395184;19;1129;-49
2023/04/15 00:42:34;;;;;;;;;;;;;;;18.97;69.85;100053.38;7394154;19;1790;-49
2023/04/15 00:45:03;;;;;;;;;;;;;;;18.93;70.21;100043.97;7394446;19;1847;-49
2023/04/15 00:47:32;;;;;;;;;;;;;;;19.01;69.48;100044.03;7394324;19;1466;-49
2023/04/15 00:50:00;;;;;;;;;;;;;;;18.93;69.98;100057.38;7393339;19;1031;-49
2023/04/15 00:52:28;;;;;;;;;;;;;;;18.91;69.69;100048.66;7393858;19;1580;-50
2023/04/15 00:54:57;;;;;;;;;;;;;;;18.96;69.59;100074.97;7393849;19;1535;-49
2023/04/15 00:57:25;;;;;;;;;;;;;;;19.01;69.54;100049.41;7393760;19;1419;-53
2023/04/15 00:59:57;;;;;;;;;;;;;;;18.98;69.46;100054.22;7394918;19;1193;-49
2023/04/15 01:02:26;;;;;;;;;;;;;;;18.90;69.90;100049.66;7394885;19;1273;-49
2023/04/15 01:04:54;;;;;;;;;;;;;;;18.90;69.64;100036.25;7394822;19;1855;-50
2023/04/15 01:07:22;;;;;;;;;;;;;;;18.92;69.68;100039.63;7395133;19;1545;-49
2023/04/15 01:09:51;;;;;;;;;;;;;;;18.98;69.35;100032.78;7393743;19;1559;-49
2023/04/15 01:12:19;;;;;;;;;;;;;;;18.92;69.64;100033.41;7394036;19;1320;-49
2023/04/15 01:14:47;;;;;;;;;;;;;;;18.88;69.72;100039.09;7395265;19;1162;-49
2023/04/15 01:17:18;;;;;;;;;;;;;;;18.85;69.56;100043.91;7396163;19;1019;-49
2023/04/15 01:19:47;;;;;;;;;;;;;;;18.93;69.47;100068.09;7395352;19;1468;-49
2023/04/15 01:22:15;;;;;;;;;;;;;;;18.84;69.84;100077.03;7394900;19;1499;-49
2023/04/15 01:24:47;;;;;;;;;;;;;;;18.86;69.67;100075.91;7393262;19;1851;-49
2023/04/15 01:27:18;;;;;;;;;;;;;;;18.84;69.84;100098.44;7394023;19;1390;-49
2023/04/15 01:29:47;;;;;;;;;;;;;;;18.86;70.05;100085.75;7394716;19;1173;-49
2023/04/15 01:32:16;;;;;;;;;;;;;;;18.84;69.76;100082.38;7395391;19;1631;-49
2023/04/15 01:34:44;;;;;;;;;;;;;;;18.82;70.06;100084.38;7386887;19;1133;-49
2023/04/15 01:37:12;;;;;;;;;;;;;;;18.91;69.83;100086.16;7393976;19;1932;-49
2023/04/15 01:39:41;;;;;;;;;;;;;;;18.86;69.73;100083.06;7393054;19;1453;-50
2023/04/15 01:42:17;;;;;;;;;;;;;;;18.78;70.24;100094.53;7393795;19;1486;-49
2023/04/15 01:44:46;;;;;;;;;;;;;;;18.87;70.09;100071.38;7393886;19;1862;-50
2023/04/15 01:47:14;;;;;;;;;;;;;;;19.98;67.10;100077.16;7393664;19;1627;-49
2023/04/15 01:49:43;;;;;;;;;;;;;;;20.48;65.41;100083.63;7393836;19;1580;-49
2023/04/15 01:52:11;;;;;;;;;;;;;;;20.66;65.19;100103.19;7392590;19;1627;-50
2023/04/15 01:54:39;;;;;;;;;;;;;;;20.54;65.73;100100.94;7394011;19;1281;-49
2023/04/15 01:57:08;;;;;;;;;;;;;;;20.56;65.83;100107.81;7393764;19;1280;-50
2023/04/15 01:59:39;;;;;;;;;;;;;;;20.62;65.85;100091.09;7392409;19;1267;-50
2023/04/15 02:02:08;;;;;;;;;;;;;;;20.64;65.69;100082.88;7396430;19;1545;-49
2023/04/15 02:04:36;;;;;;;;;;;;;;;20.58;66.04;100086.19;7400490;19;1854;-49
2023/04/15 02:07:04;;;;;;;;;;;;;;;20.56;66.08;100069.38;7400326;19;1568;-49
2023/04/15 02:09:32;;;;;;;;;;;;;;;20.54;65.88;100063.34;7401076;19;1498;-49
2023/04/15 02:12:01;;;;;;;;;;;;;;;20.55;66.01;100057.81;7400429;19;1260;-49
2023/04/15 02:14:29;;;;;;;;;;;;;;;20.53;66.13;100062.50;7400802;19;1252;-49
2023/04/15 02:17:05;;;;;;;;;;;;;;;20.56;66.25;100075.59;7399340;19;1924;-49
2023/04/15 02:19:34;;;;;;;;;;;;;;;20.62;65.74;100074.97;7400129;19;1433;-49
2023/04/15 02:22:03;;;;;;;;;;;;;;;20.59;65.95;100086.06;7400774;19;1252;-49
2023/04/15 02:24:32;;;;;;;;;;;;;;;20.61;65.79;100093.94;7400255;19;1926;-50
2023/04/15 02:27:00;;;;;;;;;;;;;;;20.79;65.66;100101.88;7397281;19;1873;-50
2023/04/15 02:29:28;;;;;;;;;;;;;;;21.00;64.75;100107.66;7399427;19;1245;-50
2023/04/15 02:31:59;;;;;;;;;;;;;;;21.21;64.00;100101.00;7399778;19;1307;-49
2023/04/15 02:34:28;;;;;;;;;;;;;;;20.84;65.18;100104.94;7399859;19;1627;-50
2023/04/15 02:36:56;;;;;;;;;;;;;;;20.65;65.78;100090.78;7399831;19;1121;-50
2023/04/15 02:39:25;;;;;;;;;;;;;;;20.74;65.93;100088.13;7398099;19;1199;-49
2023/04/15 02:41:54;;;;;;;;;;;;;;;20.84;65.58;100067.31;7400042;19;1492;-49
2023/04/15 02:44:23;;;;;;;;;;;;;;;20.96;64.93;100032.91;7399293;19;1169;-49
2023/04/15 02:46:53;;;;;;;;;;;;;;;20.88;65.38;100031.03;7396676;19;1846;-50
2023/04/15 02:49:24;;;;;;;;;;;;;;;20.85;65.53;100058.25;7397949;19;1557;-49
2023/04/15 02:51:52;;;;;;;;;;;;;;;20.81;65.52;100068.50;7397838;19;1534;-50
2023/04/15 02:54:21;;;;;;;;;;;;;;;20.80;65.58;100099.03;7398657;19;1529;-49
2023/04/15 02:56:51;;;;;;;;;;;;;;;20.79;65.44;100104.56;7398202;19;1613;-49
2023/04/15 02:59:19;;;;;;;;;;;;;;;20.82;65.38;100102.41;7397878;19;1627;-49
2023/04/15 03:01:47;;;;;;;;;;;;;;;20.86;65.36;100108.31;7397614;19;1197;-49
2023/04/15 03:04:15;;;;;;;;;;;;;;;20.83;65.96;100104.09;7397405;19;1371;-50
2023/04/15 03:06:46;;;;;;;;;;;;;;;20.67;66.60;100093.28;7395794;19;1841;-49
2023/04/15 03:09:15;;;;;;;;;;;;;;;20.62;67.25;100101.00;7398237;19;1525;-49
2023/04/15 03:11:43;;;;;;;;;;;;;;;20.80;66.75;100080.22;7397967;19;1586;-49
2023/04/15 03:14:11;;;;;;;;;;;;;;;21.17;65.68;100067.34;7397324;19;1247;-49
2023/04/15 03:16:40;;;;;;;;;;;;;;;21.40;65.23;100091.75;7398221;19;1618;-49
2023/04/15 03:19:08;;;;;;;;;;;;;;;20.97;66.16;100115.19;7397598;19;1537;-49
2023/04/15 03:21:36;;;;;;;;;;;;;;;20.60;67.38;100113.75;7397655;19;1248;-49
2023/04/15 03:24:07;;;;;;;;;;;;;;;20.53;67.51;100118.91;7398202;19;1308;-49
2023/04/15 03:26:36;;;;;;;;;;;;;;;20.69;67.22;100136.97;7396815;19;1871;-49
2023/04/15 03:29:04;;;;;;;;;;;;;;;20.78;67.13;100153.97;7396478;19;1182;-49
2023/04/15 03:31:32;;;;;;;;;;;;;;;20.70;67.29;100159.31;7397824;19;1535;-49
2023/04/15 03:34:00;;;;;;;;;;;;;;;20.63;67.42;100157.25;7397968;19;1185;-49
2023/04/15 03:36:30;;;;;;;;;;;;;;;20.64;67.29;100141.97;7397533;19;1496;-50
2023/04/15 03:39:00;;;;;;;;;;;;;;;21.14;65.62;100151.88;7395681;19;1248;-49
2023/04/15 03:41:31;;;;;;;;;;;;;;;21.18;65.41;100149.72;7394383;19;1225;-49
2023/04/15 03:44:00;;;;;;;;;;;;;;;20.70;66.86;100167.38;7395902;19;1170;-49
2023/04/15 03:46:28;;;;;;;;;;;;;;;20.72;67.26;100162.66;7395068;19;1870;-49
2023/04/15 03:48:56;;;;;;;;;;;;;;;20.92;66.97;100155.19;7396248;19;1537;-49
2023/04/15 03:51:25;;;;;;;;;;;;;;;21.08;66.22;100157.09;7397632;19;1146;-49
2023/04/15 03:53:53;;;;;;;;;;;;;;;21.07;66.23;100150.88;7396768;19;1193;-49
2023/04/15 03:56:21;;;;;;;;;;;;;;;20.96;66.20;100152.00;7395946;19;1549;-49
2023/04/15 03:58:52;;;;;;;;;;;;;;;21.00;66.38;100150.66;7395872;19;1426;-49
2023/04/15 04:01:20;;;;;;;;;;;;;;;20.69;67.09;100149.53;7395744;19;1600;-49
2023/04/15 04:03:49;;;;;;;;;;;;;;;20.41;67.78;100155.09;7395826;19;1186;-49
2023/04/15 04:06:17;;;;;;;;;;;;;;;20.31;67.96;100157.03;7394662;19;1868;-49
2023/04/15 04:08:45;;;;;;;;;;;;;;;20.12;68.43;100148.22;7395604;19;1181;-49
2023/04/15 04:11:14;;;;;;;;;;;;;;;19.91;69.07;100153.09;7395615;19;1413;-49
2023/04/15 04:13:42;;;;;;;;;;;;;;;19.83;69.18;100148.50;7397657;19;1065;-49
2023/04/15 04:16:13;;;;;;;;;;;;;;;19.70;69.35;100148.88;7395986;19;1500;-49
2023/04/15 04:18:41;;;;;;;;;;;;;;;19.62;69.81;100146.16;7395562;19;1476;-49
2023/04/15 04:21:09;;;;;;;;;;;;;;;19.52;69.83;100137.31;7395448;19;1264;-49
2023/04/15 04:23:38;;;;;;;;;;;;;;;19.46;69.92;100146.84;7396186;19;1481;-49
2023/04/15 04:26:06;;;;;;;;;;;;;;;19.47;69.63;100138.63;7394776;19;1877;-49
2023/04/15 04:28:35;;;;;;;;;;;;;;;19.47;69.78;100160.06;7396338;19;1264;-49
2023/04/15 04:31:03;;;;;;;;;;;;;;;19.50;69.32;100169.66;7395980;19;1161;-50
2023/04/15 04:33:34;;;;;;;;;;;;;;;19.42;69.76;100180.31;7394685;19;1451;-49
2023/04/15 04:36:03;;;;;;;;;;;;;;;19.63;69.42;100180.84;7395442;19;1474;-49
2023/04/15 04:38:31;;;;;;;;;;;;;;;19.75;68.69;100181.47;7392890;19;1586;-49
2023/04/15 04:40:59;;;;;;;;;;;;;;;19.79;68.61;100173.97;7393524;19;1190;-49
2023/04/15 04:43:27;;;;;;;;;;;;;;;19.91;68.24;100193.34;7396383;19;1149;-49
2023/04/15 04:45:56;;;;;;;;;;;;;;;19.89;68.08;100192.66;7393521;19;1867;-50
2023/04/15 04:48:24;;;;;;;;;;;;;;;19.84;68.26;100196.66;7394312;19;1282;-49
2023/04/15 04:50:55;;;;;;;;;;;;;;;19.73;68.37;100194.19;7394900;19;1548;-49
2023/04/15 04:53:24;;;;;;;;;;;;;;;19.47;69.53;100211.03;7395489;19;1291;-49
2023/04/15 04:55:52;;;;;;;;;;;;;;;20.03;67.45;100195.66;7392032;19;1591;-49
2023/04/15 04:58:20;;;;;;;;;;;;;;;20.16;67.27;100197.91;7392006;19;1398;-50
2023/04/15 05:00:49;;;;;;;;;;;;;;;19.90;68.03;100218.50;7392454;19;1080;-50
2023/04/15 05:03:17;;;;;;;;;;;;;;;19.82;68.05;100206.69;7394513;19;1097;-49
2023/04/15 05:05:45;;;;;;;;;;;;;;;19.84;67.95;100219.97;7393647;19;1875;-49
2023/04/15 05:08:16;;;;;;;;;;;;;;;19.77;68.27;100198.25;7394002;19;1291;-57
2023/04/15 05:10:44;;;;;;;;;;;;;;;19.62;69.22;100203.31;7391150;19;1479;-62
2023/04/15 05:13:13;;;;;;;;;;;;;;;19.54;69.92;100230.03;7391333;19;1631;-59
2023/04/15 05:15:42;;;;;;;;;;;;;;;19.64;69.47;100222.75;7389454;19;1260;-59
2023/04/15 05:18:10;;;;;;;;;;;;;;;19.88;68.77;100225.88;7391987;19;1453;-59
2023/04/15 05:20:38;;;;;;;;;;;;;;;19.82;68.79;100235.38;7389512;19;1196;-59
2023/04/15 05:23:06;;;;;;;;;;;;;;;19.75;69.11;100231.59;7391681;19;1031;-59
2023/04/15 05:25:37;;;;;;;;;;;;;;;19.58;69.27;100241.31;6867972;19;10000260;-59
2023/04/15 05:28:06;;;;;;;;;;;;;;;19.68;68.96;100228.69;7383342;19;1449;-59
2023/04/15 05:30:34;;;;;;;;;;;;;;;19.69;68.88;100254.50;7383590;19;1587;-60
2023/04/15 05:33:02;;;;;;;;;;;;;;;19.50;69.33;100249.25;7383492;19;1391;-59
2023/04/15 05:35:31;;;;;;;;;;;;;;;19.86;68.42;100283.19;7388031;19;1820;-59
2023/04/15 05:37:59;;;;;;;;;;;;;;;20.05;67.81;100249.16;7392539;19;1539;-59
2023/04/15 05:40:27;;;;;;;;;;;;;;;19.79;68.47;100243.72;7392742;19;1572;-60
2023/04/15 05:42:58;;;;;;;;;;;;;;;19.68;68.59;100231.34;7395393;19;1594;-60
2023/04/15 05:45:26;;;;;;;;;;;;;;;19.65;68.54;100255.78;7394820;19;1586;-61
2023/04/15 05:47:55;;;;;;;;;;;;;;;19.51;68.91;100245.59;7391468;19;1849;-62
2023/04/15 05:50:23;;;;;;;;;;;;;;;19.38;69.36;100238.75;7393504;19;1570;-62
2023/04/15 05:52:52;;;;;;;;;;;;;;;19.33;69.65;100243.72;7392931;19;1469;-61
2023/04/15 05:55:21;;;;;;;;;;;;;;;19.30;69.36;100260.13;7392409;19;1540;-61
2023/04/15 05:57:49;;;;;;;;;;;;;;;19.51;68.92;100254.47;7390562;19;1852;-61
2023/04/15 06:00:21;;;;;;;;;;;;;;;19.85;68.04;100246.63;7393083;19;1196;-59
2023/04/15 06:02:49;;;;;;;;;;;;;;;19.83;68.06;100240.56;7391198;19;1499;-61
2023/04/15 06:05:17;;;;;;;;;;;;;;;19.79;68.17;100244.56;7391106;19;1492;-61
2023/04/15 06:07:46;;;;;;;;;;;;;;;19.64;68.34;100233.50;7390620;19;1850;-61
2023/04/15 06:10:14;;;;;;;;;;;;;;;19.45;69.12;100247.88;7392204;19;1501;-61
2023/04/15 06:12:42;;;;;;;;;;;;;;;19.30;69.45;100257.44;7392372;19;1514;-60
2023/04/15 06:15:11;;;;;;;;;;;;;;;19.42;69.20;100242.81;7392635;19;1611;-60
2023/04/15 06:17:42;;;;;;;;;;;;;;;19.42;69.07;100248.19;7394301;19;1197;-59
2023/04/15 06:20:11;;;;;;;;;;;;;;;19.85;67.99;100249.31;7397567;19;1063;-60
2023/04/15 06:22:39;;;;;;;;;;;;;;;19.96;67.69;100261.66;7390496;19;1126;-60
2023/04/15 06:25:09;;;;;;;;;;;;;;;19.84;68.15;100261.03;7397482;19;1281;-59
2023/04/15 06:27:38;;;;;;;;;;;;;;;19.84;68.08;100247.63;7395355;19;1847;-60
2023/04/15 06:30:07;;;;;;;;;;;;;;;19.71;68.76;100249.84;7396144;19;1370;-61
2023/04/15 06:32:35;;;;;;;;;;;;;;;19.74;68.73;100254.09;7395777;19;1431;-60
2023/04/15 06:35:06;;;;;;;;;;;;;;;19.62;69.89;100248.06;7395315;19;1531;-61
2023/04/15 06:37:35;;;;;;;;;;;;;;;19.62;69.77;100254.25;7395403;19;1276;-58
2023/04/15 06:40:03;;;;;;;;;;;;;;;19.66;70.13;100268.22;7390467;19;1126;-59
2023/04/15 06:42:32;;;;;;;;;;;;;;;19.73;70.08;100265.78;7392325;19;1223;-60
2023/04/15 06:45:01;;;;;;;;;;;;;;;19.76;70.40;100271.72;7399031;19;1226;-60
2023/04/15 06:47:29;;;;;;;;;;;;;;;19.90;70.32;100272.19;7396396;19;1842;-59
2023/04/15 06:49:57;;;;;;;;;;;;;;;20.18;69.09;100271.06;7396954;19;1084;-60
2023/04/15 06:52:28;;;;;;;;;;;;;;;20.01;69.12;100272.75;7399210;19;1433;-60
2023/04/15 06:54:58;;;;;;;;;;;;;;;19.92;69.39;100264.81;7393046;19;1149;-60
2023/04/15 06:57:27;;;;;;;;;;;;;;;19.90;70.05;100261.44;7398418;19;1165;-58
2023/04/15 06:59:55;;;;;;;;;;;;;;;19.84;69.82;100258.38;7398334;19;1611;-59
2023/04/15 07:02:24;;;;;;;;;;;;;;;19.78;70.45;100272.41;7396702;19;1283;-60
2023/04/15 07:04:53;;;;;;;;;;;;;;;19.82;69.17;100257.69;7393963;19;1905;-60
2023/04/15 07:07:21;;;;;;;;;;;;;;;19.76;70.07;100260.97;7392600;19;1963;-60
2023/04/15 07:09:52;;;;;;;;;;;;;;;19.84;70.25;100263.72;7392996;19;1549;-60
2023/04/15 07:12:20;;;;;;;;;;;;;;;19.84;69.34;100269.09;7391330;19;1414;-56
2023/04/15 07:14:49;;;;;;;;;;;;;;;20.01;69.48;100285.34;7392145;19;1426;-56
2023/04/15 07:17:17;;;;;;;;;;;;;;;20.02;69.61;100292.41;7392681;19;1122;-55
2023/04/15 07:19:46;;;;;;;;;;;;;;;20.11;70.01;100290.63;7388853;19;1469;-59
2023/04/15 07:22:14;;;;;;;;;;;;;;;20.11;69.92;100302.22;7389436;19;1522;-56
2023/04/15 07:24:42;;;;;;;;;;;;;;;20.08;69.88;100307.91;7389484;19;1497;-56
2023/04/15 07:27:13;;;;;;;;;;;;;;;20.09;69.57;100303.38;7388421;19;1850;-56
2023/04/15 07:29:41;;;;;;;;;;;;;;;20.19;69.40;100320.22;7391032;19;1543;-56
2023/04/15 07:32:10;;;;;;;;;;;;;;;20.19;69.54;100313.03;7392958;19;1195;-58
2023/04/15 07:34:38;;;;;;;;;;;;;;;20.20;69.62;100322.78;7394163;19;1286;-57
2023/04/15 07:37:06;;;;;;;;;;;;;;;20.14;69.36;100311.81;7394579;19;1126;-55
2023/04/15 07:39:35;;;;;;;;;;;;;;;20.08;69.78;100333.91;7394445;19;1161;-58
2023/04/15 07:42:04;;;;;;;;;;;;;;;20.13;69.33;100331.59;7395492;19;1562;-58
2023/04/15 07:44:35;;;;;;;;;;;;;;;20.10;69.71;100322.00;7396810;19;1242;-57
2023/04/15 07:47:04;;;;;;;;;;;;;;;20.11;69.57;100330.91;7394535;19;1857;-58
2023/04/15 07:49:32;;;;;;;;;;;;;;;20.11;69.60;100337.09;7393760;19;1299;-57
2023/04/15 07:52:00;;;;;;;;;;;;;;;20.10;69.57;100345.34;7395601;19;1576;-57
2023/04/15 07:54:29;;;;;;;;;;;;;;;20.05;67.88;100364.56;7396971;19;1540;-58
2023/04/15 07:56:57;;;;;;;;;;;;;;;19.99;67.74;100362.50;7395784;19;1445;-56
2023/04/15 07:59:26;;;;;;;;;;;;;;;19.91;67.35;100346.31;7395492;19;1280;-56
2023/04/15 08:01:58;;;;;;;;;;;;;;;19.86;67.79;100363.69;7391804;19;1610;-56
2023/04/15 08:04:26;;;;;;;;;;;;;;;19.84;68.33;100364.84;7393960;19;1484;-57
2023/04/15 08:06:55;;;;;;;;;;;;;;;19.81;68.55;100381.25;7396795;19;1838;-57
2023/04/15 08:09:23;;;;;;;;;;;;;;;19.78;68.55;100377.03;7395637;19;1305;-56
2023/04/15 08:11:51;;;;;;;;;;;;;;;19.79;68.87;100381.38;7395465;19;1283;-56
2023/04/15 08:14:20;;;;;;;;;;;;;;;19.66;64.83;100373.66;7392431;19;1140;-56
2023/04/15 08:28:17;;;;;;;;;;;;;;;19.43;57.60;100383.94;6904536;19;10002355;-54
2023/04/15 08:30:46;;;;;;;;;;;;;;;19.50;59.47;100383.34;7420143;19;1616;-53
2023/04/15 08:33:14;;;;;;;;;;;;;;;19.42;56.33;100368.84;7419856;19;1379;-44
2023/04/15 08:35:43;;;;;;;;;;;;;;;19.31;52.07;100368.19;7428911;19;1855;-44
2023/04/15 08:38:11;;;;;;;;;;;;;;;19.33;55.58;100356.31;7429665;19;1548;-44
2023/04/15 08:40:42;;;;;;;;;;;;;;;19.25;52.72;100380.34;7429309;19;1615;-44
2023/04/15 08:43:12;;;;;;;;;;;;;;;19.40;54.58;100364.63;7430120;19;1153;-44
2023/04/15 08:45:43;;;;;;;;;;;;;;;19.43;55.64;100377.72;7426220;19;1479;-47
2023/04/15 08:48:15;;;;;;;;;;;;;;;19.54;56.76;100390.97;7423351;19;1510;-47
2023/04/15 08:50:44;;;;;;;;;;;;;;;19.48;56.36;100370.94;7429283;19;1465;-47
2023/04/15 08:53:13;;;;;;;;;;;;;;;19.61;56.79;100375.09;7429252;19;1512;-47
2023/04/15 08:55:44;;;;;;;;;;;;;;;19.58;57.51;100386.16;7428823;19;1857;-44
2023/04/15 08:58:13;;;;;;;;;;;;;;;19.65;57.52;100397.97;7409962;19;1524;-44
2023/04/15 09:00:44;;;;;;;;;;;;;;;19.63;58.00;100386.53;7418461;19;1478;-44
2023/04/15 09:03:12;;;;;;;;;;;;;;;19.69;57.80;100372.53;7422607;19;1535;-43
2023/04/15 09:05:41;;;;;;;;;;;;;;;19.61;58.53;100380.47;7422226;19;1127;-44
2023/04/15 09:08:09;;;;;;;;;;;;;;;19.01;58.84;100303.13;7422202;19;1417;-44
2023/04/15 09:10:38;;;;;;;;;;;;;;;19.58;59.45;100391.53;7423170;19;1401;-44
2023/04/15 09:13:06;;;;;;;;;;;;;;;19.58;59.30;100391.53;7423184;19;1665;-44
2023/04/15 09:15:35;;;;;;;;;;;;;;;19.53;60.22;100385.75;7422304;19;1607;-44
2023/04/15 09:18:05;;;;;;;;;;;;;;;19.51;60.81;100406.50;7420522;19;2291;-44
2023/04/15 09:20:40;;;;;;;;;;;;;;;19.55;60.97;100387.28;7420870;19;1621;-44
2023/04/15 09:23:13;;;;;;;;;;;;;;;19.60;61.22;100389.53;7421391;19;1627;-44
2023/04/15 09:25:42;;;;;;;;;;;;;;;19.61;61.76;100407.28;7421790;19;1586;-44
2023/04/15 09:28:11;;;;;;;;;;;;;;;19.70;61.46;100392.16;7402018;19;1606;-44
2023/04/15 09:30:39;;;;;;;;;;;;;;;19.64;61.91;100388.25;7392423;19;1454;-44
2023/04/15 09:33:10;;;;;;;;;;;;;;;19.70;62.06;100390.31;7392181;19;1528;-44
2023/04/15 09:35:39;;;;;;;;;;;;;;;19.72;62.26;100399.09;7392848;19;1387;-44
2023/04/15 09:38:08;;;;;;;;;;;;;;;19.74;62.13;100381.00;7390827;19;1855;-44
2023/04/15 09:40:37;;;;;;;;;;;;;;;19.64;62.73;100390.91;7392530;19;1541;-44
2023/04/15 09:43:06;;;;;;;;;;;;;;;19.79;62.76;100378.69;7392962;19;1489;-44
2023/04/15 09:45:35;;;;;;;;;;;;;;;19.78;64.04;100385.09;7392646;19;1489;-44
2023/04/15 09:48:19;;;;;;;;;;;;;;;19.80;64.04;100367.00;7392580;19;1778;-44
2023/04/15 09:50:52;;;;;;;;;;;;;;;19.86;63.66;100374.44;7394199;19;1024;-44
2023/04/15 09:53:21;;;;;;;;;;;;;;;19.85;64.48;100374.56;7393274;19;1751;-44
2023/04/15 09:55:51;;;;;;;;;;;;;;;19.85;64.38;100378.09;7393870;19;1843;-44
2023/04/15 09:58:20;;;;;;;;;;;;;;;19.91;64.14;100379.34;7389897;19;1480;-44
2023/04/15 10:00:50;;;;;;;;;;;;;;;19.93;64.40;100368.47;7391169;19;1425;-44
2023/04/15 10:03:21;;;;;;;;;;;;;;;19.78;65.32;100370.81;7388430;19;1416;-44
2023/04/15 10:05:52;;;;;;;;;;;;;;;19.62;65.38;100364.25;7391233;19;1456;-44
2023/04/15 10:08:21;;;;;;;;;;;;;;;19.61;65.30;100350.97;7390875;19;1381;-44
2023/04/15 10:10:50;;;;;;;;;;;;;;;19.56;65.67;100385.47;7390268;19;1505;-44
2023/04/15 10:13:21;;;;;;;;;;;;;;;19.71;65.23;100365.19;7390629;19;1709;-44
2023/04/15 10:15:52;;;;;;;;;;;;;;;19.75;65.02;100350.50;7392419;19;1223;-44
2023/04/15 10:18:21;;;;;;;;;;;;;;;19.79;65.17;100364.44;7389587;19;2106;-44
2023/04/15 10:20:52;;;;;;;;;;;;;;;19.72;65.23;100366.91;7390989;19;1781;-44
2023/04/15 10:23:21;;;;;;;;;;;;;;;19.76;64.99;100357.56;7391008;19;1520;-44
2023/04/15 10:25:50;;;;;;;;;;;;;;;19.74;65.25;100367.59;7391376;19;1498;-44
2023/04/15 10:28:19;;;;;;;;;;;;;;;19.83;65.11;100361.31;7392228;19;1465;-44
2023/04/15 10:30:48;;;;;;;;;;;;;;;19.77;65.27;100363.75;7389600;19;1407;-44
2023/04/15 10:33:18;;;;;;;;;;;;;;;19.57;65.45;100369.19;7393039;19;1493;-44
2023/04/15 10:35:47;;;;;;;;;;;;;;;19.53;65.70;100361.59;7398046;19;1546;-44
2023/04/15 10:38:31;;;;;;;;;;;;;;;19.53;65.50;100383.91;7392582;19;1849;-44
2023/04/15 10:41:13;;;;;;;;;;;;;;;19.58;65.18;100370.91;7394377;19;1605;-45
2023/04/15 10:43:41;;;;;;;;;;;;;;;19.66;65.37;100378.19;7393538;19;1462;-44
2023/04/15 10:46:11;;;;;;;;;;;;;;;19.69;65.57;100364.47;7393912;19;1462;-44
2023/04/15 10:48:40;;;;;;;;;;;;;;;19.67;66.22;100347.69;7390834;19;1223;-44
2023/04/15 10:51:08;;;;;;;;;;;;;;;19.77;66.18;100358.38;7393041;19;1120;-45
2023/04/15 10:53:38;;;;;;;;;;;;;;;19.76;66.13;100357.56;7394982;19;1154;-45
2023/04/15 10:56:09;;;;;;;;;;;;;;;19.75;66.53;100357.69;7395241;19;1099;-45
2023/04/15 10:58:44;;;;;;;;;;;;;;;19.68;66.38;100357.44;7395201;19;1531;-44
2023/04/15 11:01:12;;;;;;;;;;;;;;;19.65;66.79;100352.34;7393734;19;1335;-45
2023/04/15 11:03:41;;;;;;;;;;;;;;;19.67;66.53;100363.78;7385474;19;1671;-44
2023/04/15 11:06:10;;;;;;;;;;;;;;;19.70;66.24;100358.13;7384650;19;1481;-45
2023/04/15 11:08:53;;;;;;;;;;;;;;;19.71;65.99;100367.88;7385599;19;1841;-45
2023/04/15 11:11:24;;;;;;;;;;;;;;;19.85;65.54;100370.06;7390799;19;1826;-44
2023/04/15 11:13:53;;;;;;;;;;;;;;;19.89;65.20;100361.72;7389830;19;1890;-44
2023/04/15 11:16:21;;;;;;;;;;;;;;;19.79;65.34;100361.78;7389525;19;1866;-44
2023/04/15 11:18:56;;;;;;;;;;;;;;;19.74;65.59;100354.19;7388758;19;2286;-45
2023/04/15 11:21:27;;;;;;;;;;;;;;;19.59;66.09;100350.28;7389800;19;1584;-44
2023/04/15 11:23:55;;;;;;;;;;;;;;;19.62;66.03;100360.72;7390798;19;1538;-45
2023/04/15 11:26:27;;;;;;;;;;;;;;;19.54;66.27;100357.94;7388676;19;1421;-44
2023/04/15 11:28:56;;;;;;;;;;;;;;;19.56;66.39;100355.97;7386969;19;1540;-45
2023/04/15 11:31:26;;;;;;;;;;;;;;;19.80;65.56;100372.34;7387977;19;1414;-44
2023/04/15 11:33:59;;;;;;;;;;;;;;;19.57;66.54;100384.44;7384118;19;1450;-44
2023/04/15 11:36:30;;;;;;;;;;;;;;;19.52;66.61;100367.94;7390405;19;1845;-44
2023/04/15 11:38:59;;;;;;;;;;;;;;;19.50;66.67;100373.47;7390543;19;1198;-44
2023/04/15 11:41:30;;;;;;;;;;;;;;;19.52;66.65;100349.16;7390072;19;1483;-44
2023/04/15 11:43:59;;;;;;;;;;;;;;;19.44;66.41;100368.72;7388902;19;1540;-44
2023/04/15 11:46:30;;;;;;;;;;;;;;;19.02;65.83;100257.44;7390445;19;1579;-44
2023/04/15 11:48:59;;;;;;;;;;;;;;;19.56;66.86;100361.31;7389169;19;1403;-45
2023/04/15 11:51:27;;;;;;;;;;;;;;;19.64;66.40;100339.97;7388324;19;1527;-45
2023/04/15 11:53:56;;;;;;;;;;;;;;;19.76;65.99;100346.81;7389784;19;1403;-44
2023/04/15 11:56:25;;;;;;;;;;;;;;;19.85;65.82;100351.25;7388364;19;1120;-44
2023/04/15 11:58:58;;;;;;;;;;;;;;;19.61;66.08;100342.91;7389505;19;1857;-44
2023/04/15 12:01:33;;;;;;;;;;;;;;;19.65;66.27;100328.22;7390896;19;1099;-44
2023/04/15 12:04:02;;;;;;;;;;;;;;;19.61;65.49;100332.19;7389937;19;1483;-44
2023/04/15 12:06:33;;;;;;;;;;;;;;;19.48;66.28;100337.91;7390264;19;1559;-45
2023/04/15 12:09:03;;;;;;;;;;;;;;;19.57;63.93;100336.16;7385517;19;1545;-45
2023/04/15 12:11:39;;;;;;;;;;;;;;;19.73;63.89;100331.00;7387281;19;1555;-44
2023/04/15 12:14:11;;;;;;;;;;;;;;;19.68;62.99;100325.25;7388350;19;1576;-44
2023/04/15 12:16:41;;;;;;;;;;;;;;;19.69;65.47;100313.50;7387628;19;1886;-44
2023/04/15 12:19:13;;;;;;;;;;;;;;;19.66;66.30;100311.13;7379562;19;3542;-47
2023/04/15 12:21:42;;;;;;;;;;;;;;;19.66;65.71;100324.56;7386580;19;1380;-47
2023/04/15 12:24:12;;;;;;;;;;;;;;;19.64;65.87;100316.66;7389129;19;1087;-48
2023/04/15 12:26:45;;;;;;;;;;;;;;;19.61;66.26;100316.09;7385125;19;1851;-48
2023/04/15 12:29:18;;;;;;;;;;;;;;;19.57;66.40;100317.41;7386886;19;1451;-48
2023/04/15 12:31:50;;;;;;;;;;;;;;;19.61;67.43;100316.09;7385040;19;1442;-48
2023/04/15 12:34:18;;;;;;;;;;;;;;;19.06;67.73;100223.16;7385581;19;1594;-47
2023/04/15 12:36:47;;;;;;;;;;;;;;;19.63;67.90;100314.09;7386035;19;2125;-47
2023/04/15 12:39:15;;;;;;;;;;;;;;;19.66;67.62;100309.28;7387252;19;1482;-47
2023/04/15 12:41:43;;;;;;;;;;;;;;;19.76;67.64;100320.00;7387713;19;1459;-47
2023/04/15 12:44:12;;;;;;;;;;;;;;;19.80;67.35;100337.47;7385571;19;1903;-48
2023/04/15 12:46:43;;;;;;;;;;;;;;;19.67;68.01;100305.59;7386763;19;1510;-47
2023/04/15 12:49:13;;;;;;;;;;;;;;;19.66;68.09;100320.03;7387272;19;1522;-48
2023/04/15 12:51:42;;;;;;;;;;;;;;;19.32;68.01;100274.22;7385582;19;1564;-48
2023/04/15 12:54:10;;;;;;;;;;;;;;;19.65;68.47;100334.41;7385853;19;1683;-48
2023/04/15 12:56:38;;;;;;;;;;;;;;;19.74;67.83;100332.72;7386705;19;1952;-48
2023/04/15 12:59:06;;;;;;;;;;;;;;;19.80;67.06;100326.75;7386175;19;1876;-47
2023/04/15 13:01:35;;;;;;;;;;;;;;;19.82;67.47;100330.13;7386628;19;1913;-48
2023/04/15 13:04:06;;;;;;;;;;;;;;;20.03;67.08;100334.34;7389633;19;1381;-47
2023/04/15 13:06:35;;;;;;;;;;;;;;;19.86;67.65;100336.03;7393472;19;1554;-47